sensor_id;sensor_type;location;lat;lon;timestamp;P1;durP1;ratioP1;P2;durP2;ratioP2
20294;SDS011;10306;52.128;5.208;2023-09-12T00:01:42;56.33;;;33.38;;
20294;SDS011;10306;52.128;5.208;2023-09-12T00:04:08;55.63;;;32.30;;
20294;SDS011;10306;52.128;5.208;2023-09-12T00:06:36;56.40;;;33.00;;
20294;SDS011;10306;52.128;5.208;2023-09-12T00:09:02;60.22;;;32.47;;
20294;SDS011;10306;52.128;5.208;2023-09-12T00:11:30;56.65;;;32.40;;
20294;SDS011;10306;52.128;5.208;2023-09-12T00:13:56;51.72;;;30.58;;
20294;SDS011;10306;52.128;5.208;2023-09-12T00:16:22;53.63;;;31.10;;
20294;SDS011;10306;52.128;5.208;2023-09-12T00:18:48;55.42;;;32.25;;
20294;SDS011;10306;52.128;5.208;2023-09-12T00:21:14;54.42;;;31.52;;
20294;SDS011;10306;52.128;5.208;2023-09-12T00:23:40;54.50;;;31.58;;
20294;SDS011;10306;52.128;5.208;2023-09-12T00:26:06;57.30;;;32.85;;
20294;SDS011;10306;52.128;5.208;2023-09-12T00:28:32;55.10;;;32.45;;
20294;SDS011;10306;52.128;5.208;2023-09-12T00:30:59;57.40;;;32.00;;
20294;SDS011;10306;52.128;5.208;2023-09-12T00:33:25;49.17;;;29.05;;
20294;SDS011;10306;52.128;5.208;2023-09-12T00:35:51;47.92;;;29.88;;
20294;SDS011;10306;52.128;5.208;2023-09-12T00:38:18;51.45;;;29.50;;
20294;SDS011;10306;52.128;5.208;2023-09-12T00:40:43;48.70;;;29.25;;
20294;SDS011;10306;52.128;5.208;2023-09-12T00:43:09;46.35;;;28.67;;
20294;SDS011;10306;52.128;5.208;2023-09-12T00:45:35;46.75;;;28.45;;
20294;SDS011;10306;52.128;5.208;2023-09-12T00:48:02;47.15;;;29.48;;
20294;SDS011;10306;52.128;5.208;2023-09-12T00:50:30;47.65;;;27.85;;
20294;SDS011;10306;52.128;5.208;2023-09-12T00:52:57;43.90;;;27.75;;
20294;SDS011;10306;52.128;5.208;2023-09-12T00:55:23;43.27;;;27.67;;
20294;SDS011;10306;52.128;5.208;2023-09-12T00:57:49;42.83;;;27.60;;
20294;SDS011;10306;52.128;5.208;2023-09-12T01:00:16;46.30;;;27.83;;
20294;SDS011;10306;52.128;5.208;2023-09-12T01:02:43;46.90;;;27.13;;
20294;SDS011;10306;52.128;5.208;2023-09-12T01:05:10;47.97;;;29.13;;
20294;SDS011;10306;52.128;5.208;2023-09-12T01:07:37;43.90;;;28.20;;
20294;SDS011;10306;52.128;5.208;2023-09-12T01:10:04;43.97;;;26.73;;
20294;SDS011;10306;52.128;5.208;2023-09-12T01:12:30;39.47;;;25.08;;
20294;SDS011;10306;52.128;5.208;2023-09-12T01:14:56;40.73;;;25.77;;
20294;SDS011;10306;52.128;5.208;2023-09-12T01:17:22;42.53;;;26.03;;
20294;SDS011;10306;52.128;5.208;2023-09-12T01:19:49;41.83;;;25.20;;
20294;SDS011;10306;52.128;5.208;2023-09-12T01:25:01;40.60;;;24.90;;
20294;SDS011;10306;52.128;5.208;2023-09-12T01:29:58;41.37;;;25.50;;
20294;SDS011;10306;52.128;5.208;2023-09-12T01:32:26;40.10;;;25.03;;
20294;SDS011;10306;52.128;5.208;2023-09-12T01:34:52;39.30;;;25.53;;
20294;SDS011;10306;52.128;5.208;2023-09-12T01:37:18;42.23;;;26.17;;
20294;SDS011;10306;52.128;5.208;2023-09-12T01:39:44;38.83;;;24.83;;
20294;SDS011;10306;52.128;5.208;2023-09-12T01:42:16;40.27;;;24.57;;
20294;SDS011;10306;52.128;5.208;2023-09-12T01:44:44;39.00;;;23.97;;
20294;SDS011;10306;52.128;5.208;2023-09-12T01:47:10;36.97;;;23.67;;
20294;SDS011;10306;52.128;5.208;2023-09-12T01:49:37;36.77;;;22.53;;
20294;SDS011;10306;52.128;5.208;2023-09-12T01:52:05;37.73;;;23.57;;
20294;SDS011;10306;52.128;5.208;2023-09-12T01:54:31;35.57;;;22.67;;
20294;SDS011;10306;52.128;5.208;2023-09-12T01:56:58;40.60;;;24.77;;
20294;SDS011;10306;52.128;5.208;2023-09-12T01:59:24;37.37;;;25.17;;
20294;SDS011;10306;52.128;5.208;2023-09-12T02:01:50;36.73;;;23.10;;
20294;SDS011;10306;52.128;5.208;2023-09-12T02:04:16;38.40;;;23.73;;
20294;SDS011;10306;52.128;5.208;2023-09-12T02:06:42;38.67;;;23.47;;
20294;SDS011;10306;52.128;5.208;2023-09-12T02:09:08;47.80;;;26.87;;
20294;SDS011;10306;52.128;5.208;2023-09-12T02:11:34;48.43;;;27.30;;
20294;SDS011;10306;52.128;5.208;2023-09-12T02:14:00;44.93;;;26.50;;
20294;SDS011;10306;52.128;5.208;2023-09-12T02:16:27;58.30;;;29.97;;
20294;SDS011;10306;52.128;5.208;2023-09-12T02:18:53;56.93;;;30.33;;
20294;SDS011;10306;52.128;5.208;2023-09-12T02:21:19;69.67;;;32.17;;
20294;SDS011;10306;52.128;5.208;2023-09-12T02:23:45;81.00;;;33.87;;
20294;SDS011;10306;52.128;5.208;2023-09-12T02:26:11;74.03;;;31.80;;
20294;SDS011;10306;52.128;5.208;2023-09-12T02:28:37;68.97;;;32.03;;
20294;SDS011;10306;52.128;5.208;2023-09-12T02:31:03;67.40;;;33.00;;
20294;SDS011;10306;52.128;5.208;2023-09-12T02:33:29;73.80;;;31.43;;
20294;SDS011;10306;52.128;5.208;2023-09-12T02:35:55;71.73;;;31.60;;
20294;SDS011;10306;52.128;5.208;2023-09-12T02:38:22;59.10;;;31.97;;
20294;SDS011;10306;52.128;5.208;2023-09-12T02:40:48;91.73;;;31.67;;
20294;SDS011;10306;52.128;5.208;2023-09-12T02:43:14;71.53;;;30.47;;
20294;SDS011;10306;52.128;5.208;2023-09-12T02:45:40;61.93;;;30.57;;
20294;SDS011;10306;52.128;5.208;2023-09-12T02:48:06;74.13;;;30.10;;
20294;SDS011;10306;52.128;5.208;2023-09-12T02:50:32;66.93;;;30.38;;
20294;SDS011;10306;52.128;5.208;2023-09-12T02:52:58;87.07;;;30.67;;
20294;SDS011;10306;52.128;5.208;2023-09-12T02:55:24;58.50;;;32.03;;
20294;SDS011;10306;52.128;5.208;2023-09-12T02:57:50;73.40;;;30.90;;
20294;SDS011;10306;52.128;5.208;2023-09-12T03:00:16;68.13;;;31.93;;
20294;SDS011;10306;52.128;5.208;2023-09-12T03:02:42;56.77;;;31.47;;
20294;SDS011;10306;52.128;5.208;2023-09-12T03:05:08;63.47;;;31.77;;
20294;SDS011;10306;52.128;5.208;2023-09-12T03:07:34;64.07;;;33.87;;
20294;SDS011;10306;52.128;5.208;2023-09-12T03:10:00;54.77;;;31.80;;
20294;SDS011;10306;52.128;5.208;2023-09-12T03:12:26;52.93;;;31.80;;
20294;SDS011;10306;52.128;5.208;2023-09-12T03:14:53;51.83;;;31.83;;
20294;SDS011;10306;52.128;5.208;2023-09-12T03:17:19;81.97;;;32.03;;
20294;SDS011;10306;52.128;5.208;2023-09-12T03:19:46;55.67;;;32.63;;
20294;SDS011;10306;52.128;5.208;2023-09-12T03:22:12;60.73;;;34.17;;
20294;SDS011;10306;52.128;5.208;2023-09-12T03:24:38;56.77;;;33.43;;
20294;SDS011;10306;52.128;5.208;2023-09-12T03:27:04;52.90;;;31.40;;
20294;SDS011;10306;52.128;5.208;2023-09-12T03:29:30;59.63;;;34.60;;
20294;SDS011;10306;52.128;5.208;2023-09-12T03:31:55;70.65;;;36.83;;
20294;SDS011;10306;52.128;5.208;2023-09-12T03:34:21;59.30;;;35.57;;
20294;SDS011;10306;52.128;5.208;2023-09-12T03:36:47;60.20;;;34.77;;
20294;SDS011;10306;52.128;5.208;2023-09-12T03:39:13;57.37;;;34.20;;
20294;SDS011;10306;52.128;5.208;2023-09-12T03:41:39;59.17;;;35.53;;
20294;SDS011;10306;52.128;5.208;2023-09-12T03:44:06;57.87;;;34.77;;
20294;SDS011;10306;52.128;5.208;2023-09-12T03:46:32;58.07;;;34.27;;
20294;SDS011;10306;52.128;5.208;2023-09-12T03:48:58;56.73;;;34.43;;
20294;SDS011;10306;52.128;5.208;2023-09-12T03:51:24;64.17;;;35.87;;
20294;SDS011;10306;52.128;5.208;2023-09-12T03:53:50;55.23;;;35.37;;
20294;SDS011;10306;52.128;5.208;2023-09-12T03:56:16;57.07;;;34.77;;
20294;SDS011;10306;52.128;5.208;2023-09-12T03:58:44;56.10;;;34.50;;
20294;SDS011;10306;52.128;5.208;2023-09-12T04:01:10;59.23;;;34.87;;
20294;SDS011;10306;52.128;5.208;2023-09-12T04:03:36;60.50;;;36.57;;
20294;SDS011;10306;52.128;5.208;2023-09-12T04:06:02;64.93;;;37.25;;
20294;SDS011;10306;52.128;5.208;2023-09-12T04:08:28;71.38;;;39.08;;
20294;SDS011;10306;52.128;5.208;2023-09-12T04:10:55;64.83;;;37.83;;
20294;SDS011;10306;52.128;5.208;2023-09-12T04:13:21;62.73;;;36.53;;
20294;SDS011;10306;52.128;5.208;2023-09-12T04:15:46;68.77;;;38.40;;
20294;SDS011;10306;52.128;5.208;2023-09-12T04:18:13;59.50;;;35.67;;
20294;SDS011;10306;52.128;5.208;2023-09-12T04:20:38;56.70;;;35.57;;
20294;SDS011;10306;52.128;5.208;2023-09-12T04:23:04;58.57;;;35.77;;
20294;SDS011;10306;52.128;5.208;2023-09-12T04:25:30;57.73;;;35.20;;
20294;SDS011;10306;52.128;5.208;2023-09-12T04:27:57;61.77;;;35.60;;
20294;SDS011;10306;52.128;5.208;2023-09-12T04:30:23;58.53;;;35.10;;
20294;SDS011;10306;52.128;5.208;2023-09-12T04:32:49;69.10;;;37.50;;
20294;SDS011;10306;52.128;5.208;2023-09-12T04:35:15;67.47;;;36.60;;
20294;SDS011;10306;52.128;5.208;2023-09-12T04:37:41;61.77;;;35.43;;
20294;SDS011;10306;52.128;5.208;2023-09-12T04:40:07;65.90;;;37.87;;
20294;SDS011;10306;52.128;5.208;2023-09-12T04:42:34;67.93;;;37.27;;
20294;SDS011;10306;52.128;5.208;2023-09-12T04:45:00;58.37;;;34.53;;
20294;SDS011;10306;52.128;5.208;2023-09-12T04:47:26;59.23;;;35.50;;
20294;SDS011;10306;52.128;5.208;2023-09-12T04:49:52;60.90;;;36.20;;
20294;SDS011;10306;52.128;5.208;2023-09-12T04:52:18;59.70;;;36.33;;
20294;SDS011;10306;52.128;5.208;2023-09-12T04:54:44;60.60;;;36.03;;
20294;SDS011;10306;52.128;5.208;2023-09-12T04:57:10;62.23;;;35.33;;
20294;SDS011;10306;52.128;5.208;2023-09-12T04:59:37;67.10;;;36.80;;
20294;SDS011;10306;52.128;5.208;2023-09-12T05:02:03;67.30;;;37.30;;
20294;SDS011;10306;52.128;5.208;2023-09-12T05:04:29;67.23;;;37.07;;
20294;SDS011;10306;52.128;5.208;2023-09-12T05:06:55;66.47;;;37.33;;
20294;SDS011;10306;52.128;5.208;2023-09-12T05:09:21;68.87;;;37.07;;
20294;SDS011;10306;52.128;5.208;2023-09-12T05:11:47;66.67;;;36.50;;
20294;SDS011;10306;52.128;5.208;2023-09-12T05:14:13;67.73;;;37.53;;
20294;SDS011;10306;52.128;5.208;2023-09-12T05:16:39;66.40;;;35.90;;
20294;SDS011;10306;52.128;5.208;2023-09-12T05:19:05;69.23;;;37.57;;
20294;SDS011;10306;52.128;5.208;2023-09-12T05:21:31;74.53;;;39.03;;
20294;SDS011;10306;52.128;5.208;2023-09-12T05:23:57;70.23;;;37.57;;
20294;SDS011;10306;52.128;5.208;2023-09-12T05:26:23;68.60;;;38.23;;
20294;SDS011;10306;52.128;5.208;2023-09-12T05:28:49;68.93;;;37.43;;
20294;SDS011;10306;52.128;5.208;2023-09-12T05:31:15;65.50;;;36.53;;
20294;SDS011;10306;52.128;5.208;2023-09-12T05:33:41;64.73;;;35.57;;
20294;SDS011;10306;52.128;5.208;2023-09-12T05:36:07;55.93;;;32.97;;
20294;SDS011;10306;52.128;5.208;2023-09-12T05:38:35;64.27;;;35.47;;
20294;SDS011;10306;52.128;5.208;2023-09-12T05:41:01;63.80;;;35.23;;
20294;SDS011;10306;52.128;5.208;2023-09-12T05:43:27;69.27;;;37.37;;
20294;SDS011;10306;52.128;5.208;2023-09-12T05:45:53;72.47;;;37.73;;
20294;SDS011;10306;52.128;5.208;2023-09-12T05:48:19;70.17;;;37.40;;
20294;SDS011;10306;52.128;5.208;2023-09-12T05:50:45;72.43;;;39.30;;
20294;SDS011;10306;52.128;5.208;2023-09-12T05:53:11;77.50;;;38.27;;
20294;SDS011;10306;52.128;5.208;2023-09-12T05:55:37;68.07;;;36.80;;
20294;SDS011;10306;52.128;5.208;2023-09-12T05:58:03;71.70;;;37.97;;
20294;SDS011;10306;52.128;5.208;2023-09-12T06:00:30;70.43;;;38.57;;
20294;SDS011;10306;52.128;5.208;2023-09-12T06:02:56;66.50;;;36.37;;
20294;SDS011;10306;52.128;5.208;2023-09-12T06:05:22;67.28;;;35.83;;
20294;SDS011;10306;52.128;5.208;2023-09-12T06:07:51;67.65;;;36.80;;
20294;SDS011;10306;52.128;5.208;2023-09-12T06:10:17;63.33;;;35.47;;
20294;SDS011;10306;52.128;5.208;2023-09-12T06:12:43;62.03;;;35.13;;
20294;SDS011;10306;52.128;5.208;2023-09-12T06:15:09;60.85;;;35.20;;
20294;SDS011;10306;52.128;5.208;2023-09-12T06:17:35;60.05;;;33.80;;
20294;SDS011;10306;52.128;5.208;2023-09-12T06:20:02;63.17;;;35.17;;
20294;SDS011;10306;52.128;5.208;2023-09-12T06:22:31;56.63;;;32.93;;
20294;SDS011;10306;52.128;5.208;2023-09-12T06:24:57;59.70;;;33.95;;
20294;SDS011;10306;52.128;5.208;2023-09-12T06:27:23;59.43;;;32.80;;
20294;SDS011;10306;52.128;5.208;2023-09-12T06:29:49;61.20;;;34.15;;
20294;SDS011;10306;52.128;5.208;2023-09-12T06:32:15;59.63;;;33.20;;
20294;SDS011;10306;52.128;5.208;2023-09-12T06:34:42;58.33;;;33.23;;
20294;SDS011;10306;52.128;5.208;2023-09-12T06:37:08;66.72;;;36.70;;
20294;SDS011;10306;52.128;5.208;2023-09-12T06:39:34;64.97;;;34.33;;
20294;SDS011;10306;52.128;5.208;2023-09-12T06:42:00;59.47;;;34.78;;
20294;SDS011;10306;52.128;5.208;2023-09-12T06:44:27;60.23;;;34.40;;
20294;SDS011;10306;52.128;5.208;2023-09-12T06:46:53;59.63;;;34.43;;
20294;SDS011;10306;52.128;5.208;2023-09-12T06:49:20;59.20;;;34.40;;
20294;SDS011;10306;52.128;5.208;2023-09-12T06:51:46;63.55;;;36.22;;
20294;SDS011;10306;52.128;5.208;2023-09-12T06:54:12;61.78;;;33.95;;
20294;SDS011;10306;52.128;5.208;2023-09-12T06:56:40;60.25;;;34.00;;
20294;SDS011;10306;52.128;5.208;2023-09-12T06:59:07;57.23;;;33.97;;
20294;SDS011;10306;52.128;5.208;2023-09-12T07:01:34;61.55;;;34.22;;
20294;SDS011;10306;52.128;5.208;2023-09-12T07:04:00;59.35;;;33.55;;
20294;SDS011;10306;52.128;5.208;2023-09-12T07:06:26;62.07;;;33.13;;
20294;SDS011;10306;52.128;5.208;2023-09-12T07:08:52;60.88;;;32.63;;
20294;SDS011;10306;52.128;5.208;2023-09-12T07:11:18;58.97;;;33.97;;
20294;SDS011;10306;52.128;5.208;2023-09-12T07:13:44;61.10;;;31.83;;
20294;SDS011;10306;52.128;5.208;2023-09-12T07:16:10;59.85;;;32.95;;
20294;SDS011;10306;52.128;5.208;2023-09-12T07:18:36;61.00;;;32.00;;
20294;SDS011;10306;52.128;5.208;2023-09-12T07:21:04;54.58;;;31.52;;
20294;SDS011;10306;52.128;5.208;2023-09-12T07:23:30;55.70;;;31.73;;
20294;SDS011;10306;52.128;5.208;2023-09-12T07:25:57;48.90;;;29.95;;
20294;SDS011;10306;52.128;5.208;2023-09-12T07:28:23;58.10;;;31.42;;
20294;SDS011;10306;52.128;5.208;2023-09-12T07:30:50;54.92;;;30.67;;
20294;SDS011;10306;52.128;5.208;2023-09-12T07:33:16;56.38;;;30.90;;
20294;SDS011;10306;52.128;5.208;2023-09-12T07:35:42;52.08;;;30.65;;
20294;SDS011;10306;52.128;5.208;2023-09-12T07:38:07;58.83;;;31.88;;
20294;SDS011;10306;52.128;5.208;2023-09-12T07:40:33;55.72;;;30.83;;
20294;SDS011;10306;52.128;5.208;2023-09-12T07:42:59;59.63;;;32.70;;
20294;SDS011;10306;52.128;5.208;2023-09-12T07:45:25;58.28;;;32.72;;
20294;SDS011;10306;52.128;5.208;2023-09-12T07:47:52;57.50;;;31.70;;
20294;SDS011;10306;52.128;5.208;2023-09-12T07:50:18;64.25;;;32.17;;
20294;SDS011;10306;52.128;5.208;2023-09-12T07:52:44;53.38;;;30.48;;
20294;SDS011;10306;52.128;5.208;2023-09-12T07:55:10;65.88;;;32.72;;
20294;SDS011;10306;52.128;5.208;2023-09-12T07:57:36;64.38;;;34.25;;
20294;SDS011;10306;52.128;5.208;2023-09-12T08:00:04;72.10;;;33.33;;
20294;SDS011;10306;52.128;5.208;2023-09-12T08:02:35;62.95;;;33.25;;
20294;SDS011;10306;52.128;5.208;2023-09-12T08:05:01;73.88;;;34.28;;
20294;SDS011;10306;52.128;5.208;2023-09-12T08:07:27;67.80;;;34.15;;
20294;SDS011;10306;52.128;5.208;2023-09-12T08:09:56;69.90;;;33.33;;
20294;SDS011;10306;52.128;5.208;2023-09-12T08:12:24;76.00;;;34.53;;
20294;SDS011;10306;52.128;5.208;2023-09-12T08:14:53;80.68;;;34.90;;
20294;SDS011;10306;52.128;5.208;2023-09-12T08:17:20;77.25;;;34.17;;
20294;SDS011;10306;52.128;5.208;2023-09-12T08:19:46;86.78;;;33.75;;
20294;SDS011;10306;52.128;5.208;2023-09-12T08:22:12;79.57;;;33.40;;
20294;SDS011;10306;52.128;5.208;2023-09-12T08:24:38;70.13;;;34.03;;
20294;SDS011;10306;52.128;5.208;2023-09-12T08:27:04;70.95;;;31.70;;
20294;SDS011;10306;52.128;5.208;2023-09-12T08:29:31;66.68;;;31.52;;
20294;SDS011;10306;52.128;5.208;2023-09-12T08:31:57;69.60;;;31.70;;
20294;SDS011;10306;52.128;5.208;2023-09-12T08:34:24;65.32;;;30.85;;
20294;SDS011;10306;52.128;5.208;2023-09-12T08:36:50;72.28;;;31.88;;
20294;SDS011;10306;52.128;5.208;2023-09-12T08:39:17;66.05;;;32.10;;
20294;SDS011;10306;52.128;5.208;2023-09-12T08:41:43;65.88;;;33.05;;
20294;SDS011;10306;52.128;5.208;2023-09-12T08:44:12;64.95;;;32.95;;
20294;SDS011;10306;52.128;5.208;2023-09-12T08:46:40;57.08;;;30.52;;
20294;SDS011;10306;52.128;5.208;2023-09-12T08:49:06;60.33;;;31.67;;
20294;SDS011;10306;52.128;5.208;2023-09-12T08:51:33;53.45;;;29.58;;
20294;SDS011;10306;52.128;5.208;2023-09-12T08:53:59;64.80;;;32.63;;
20294;SDS011;10306;52.128;5.208;2023-09-12T08:56:25;59.88;;;30.30;;
20294;SDS011;10306;52.128;5.208;2023-09-12T08:58:52;51.60;;;30.05;;
20294;SDS011;10306;52.128;5.208;2023-09-12T09:01:19;58.00;;;33.35;;
20294;SDS011;10306;52.128;5.208;2023-09-12T09:03:45;55.53;;;31.02;;
20294;SDS011;10306;52.128;5.208;2023-09-12T09:06:12;54.38;;;30.95;;
20294;SDS011;10306;52.128;5.208;2023-09-12T09:08:39;59.28;;;31.98;;
20294;SDS011;10306;52.128;5.208;2023-09-12T09:11:05;58.00;;;32.83;;
20294;SDS011;10306;52.128;5.208;2023-09-12T09:13:34;56.08;;;32.65;;
20294;SDS011;10306;52.128;5.208;2023-09-12T09:18:49;55.55;;;32.63;;
20294;SDS011;10306;52.128;5.208;2023-09-12T09:21:19;59.17;;;34.78;;
20294;SDS011;10306;52.128;5.208;2023-09-12T09:23:47;56.92;;;33.95;;
20294;SDS011;10306;52.128;5.208;2023-09-12T09:26:13;58.33;;;36.40;;
20294;SDS011;10306;52.128;5.208;2023-09-12T09:28:39;56.60;;;35.00;;
20294;SDS011;10306;52.128;5.208;2023-09-12T09:31:09;59.50;;;34.38;;
20294;SDS011;10306;52.128;5.208;2023-09-12T09:33:36;52.15;;;32.78;;
20294;SDS011;10306;52.128;5.208;2023-09-12T09:36:03;53.08;;;32.58;;
20294;SDS011;10306;52.128;5.208;2023-09-12T09:38:29;53.70;;;33.25;;
20294;SDS011;10306;52.128;5.208;2023-09-12T09:40:55;53.13;;;34.58;;
20294;SDS011;10306;52.128;5.208;2023-09-12T09:43:22;56.47;;;33.42;;
20294;SDS011;10306;52.128;5.208;2023-09-12T09:45:50;47.20;;;32.30;;
20294;SDS011;10306;52.128;5.208;2023-09-12T09:48:22;46.90;;;31.38;;
20294;SDS011;10306;52.128;5.208;2023-09-12T09:50:49;47.13;;;30.88;;
20294;SDS011;10306;52.128;5.208;2023-09-12T09:53:16;47.38;;;29.88;;
20294;SDS011;10306;52.128;5.208;2023-09-12T09:55:42;49.70;;;31.23;;
20294;SDS011;10306;52.128;5.208;2023-09-12T09:58:08;45.83;;;30.08;;
20294;SDS011;10306;52.128;5.208;2023-09-12T10:00:36;49.85;;;31.30;;
20294;SDS011;10306;52.128;5.208;2023-09-12T10:03:05;46.63;;;29.73;;
20294;SDS011;10306;52.128;5.208;2023-09-12T10:05:32;48.58;;;30.90;;
20294;SDS011;10306;52.128;5.208;2023-09-12T10:07:58;51.17;;;30.23;;
20294;SDS011;10306;52.128;5.208;2023-09-12T10:10:25;46.20;;;29.67;;
20294;SDS011;10306;52.128;5.208;2023-09-12T10:12:54;39.90;;;26.70;;
20294;SDS011;10306;52.128;5.208;2023-09-12T10:15:21;44.78;;;29.23;;
20294;SDS011;10306;52.128;5.208;2023-09-12T10:17:55;40.08;;;27.27;;
20294;SDS011;10306;52.128;5.208;2023-09-12T10:20:23;41.40;;;27.13;;
20294;SDS011;10306;52.128;5.208;2023-09-12T10:23:11;42.60;;;28.63;;
20294;SDS011;10306;52.128;5.208;2023-09-12T10:25:40;45.88;;;29.00;;
20294;SDS011;10306;52.128;5.208;2023-09-12T10:28:06;40.75;;;28.52;;
20294;SDS011;10306;52.128;5.208;2023-09-12T10:30:32;43.85;;;28.23;;
20294;SDS011;10306;52.128;5.208;2023-09-12T10:33:00;41.63;;;27.05;;
20294;SDS011;10306;52.128;5.208;2023-09-12T10:35:29;42.15;;;26.95;;
20294;SDS011;10306;52.128;5.208;2023-09-12T10:37:57;47.65;;;27.42;;
20294;SDS011;10306;52.128;5.208;2023-09-12T10:40:25;42.30;;;27.65;;
20294;SDS011;10306;52.128;5.208;2023-09-12T10:42:52;44.50;;;27.02;;
20294;SDS011;10306;52.128;5.208;2023-09-12T10:45:21;47.67;;;30.25;;
20294;SDS011;10306;52.128;5.208;2023-09-12T10:47:47;44.47;;;29.73;;
20294;SDS011;10306;52.128;5.208;2023-09-12T10:50:13;45.05;;;28.35;;
20294;SDS011;10306;52.128;5.208;2023-09-12T10:52:40;43.75;;;28.98;;
20294;SDS011;10306;52.128;5.208;2023-09-12T10:55:10;43.15;;;29.02;;
20294;SDS011;10306;52.128;5.208;2023-09-12T10:58:01;41.60;;;28.80;;
20294;SDS011;10306;52.128;5.208;2023-09-12T11:00:27;38.47;;;26.33;;
20294;SDS011;10306;52.128;5.208;2023-09-12T11:02:53;38.83;;;26.77;;
20294;SDS011;10306;52.128;5.208;2023-09-12T11:07:58;37.83;;;25.27;;
20294;SDS011;10306;52.128;5.208;2023-09-12T11:10:25;33.75;;;24.25;;
20294;SDS011;10306;52.128;5.208;2023-09-12T11:12:52;33.05;;;23.08;;
20294;SDS011;10306;52.128;5.208;2023-09-12T11:15:19;33.10;;;22.92;;
20294;SDS011;10306;52.128;5.208;2023-09-12T11:17:46;35.53;;;22.33;;
20294;SDS011;10306;52.128;5.208;2023-09-12T11:20:12;32.60;;;22.25;;
20294;SDS011;10306;52.128;5.208;2023-09-12T11:22:43;32.67;;;21.88;;
20294;SDS011;10306;52.128;5.208;2023-09-12T11:30:20;31.13;;;22.30;;
20294;SDS011;10306;52.128;5.208;2023-09-12T11:32:47;29.73;;;20.73;;
20294;SDS011;10306;52.128;5.208;2023-09-12T11:35:14;28.05;;;19.77;;
20294;SDS011;10306;52.128;5.208;2023-09-12T11:37:48;26.20;;;18.23;;
20294;SDS011;10306;52.128;5.208;2023-09-12T11:40:15;22.05;;;17.83;;
20294;SDS011;10306;52.128;5.208;2023-09-12T11:42:42;25.88;;;19.13;;
20294;SDS011;10306;52.128;5.208;2023-09-12T11:45:09;23.75;;;19.08;;
20294;SDS011;10306;52.128;5.208;2023-09-12T11:47:42;26.42;;;18.77;;
20294;SDS011;10306;52.128;5.208;2023-09-12T11:55:26;26.52;;;19.85;;
20294;SDS011;10306;52.128;5.208;2023-09-12T11:57:54;27.27;;;20.20;;
20294;SDS011;10306;52.128;5.208;2023-09-12T12:00:20;27.35;;;20.02;;
20294;SDS011;10306;52.128;5.208;2023-09-12T12:02:46;23.67;;;17.92;;
20294;SDS011;10306;52.128;5.208;2023-09-12T12:05:12;26.00;;;18.25;;
20294;SDS011;10306;52.128;5.208;2023-09-12T12:07:38;23.40;;;18.15;;
20294;SDS011;10306;52.128;5.208;2023-09-12T12:10:07;29.35;;;18.60;;
20294;SDS011;10306;52.128;5.208;2023-09-12T12:12:33;23.77;;;17.33;;
20294;SDS011;10306;52.128;5.208;2023-09-12T12:15:00;22.50;;;16.98;;
20294;SDS011;10306;52.128;5.208;2023-09-12T12:17:26;22.42;;;17.63;;
20294;SDS011;10306;52.128;5.208;2023-09-12T12:19:53;24.50;;;17.73;;
20294;SDS011;10306;52.128;5.208;2023-09-12T12:22:19;27.42;;;17.45;;
20294;SDS011;10306;52.128;5.208;2023-09-12T12:24:45;21.40;;;17.00;;
20294;SDS011;10306;52.128;5.208;2023-09-12T12:27:14;19.77;;;14.60;;
20294;SDS011;10306;52.128;5.208;2023-09-12T12:29:40;21.05;;;16.73;;
20294;SDS011;10306;52.128;5.208;2023-09-12T12:32:07;17.15;;;14.55;;
20294;SDS011;10306;52.128;5.208;2023-09-12T12:34:34;16.02;;;14.23;;
20294;SDS011;10306;52.128;5.208;2023-09-12T12:37:01;15.77;;;13.48;;
20294;SDS011;10306;52.128;5.208;2023-09-12T12:39:27;16.05;;;12.98;;
20294;SDS011;10306;52.128;5.208;2023-09-12T12:41:53;15.20;;;13.65;;
20294;SDS011;10306;52.128;5.208;2023-09-12T12:44:19;20.35;;;15.02;;
20294;SDS011;10306;52.128;5.208;2023-09-12T12:46:49;20.17;;;16.90;;
20294;SDS011;10306;52.128;5.208;2023-09-12T12:49:16;22.48;;;16.95;;
20294;SDS011;10306;52.128;5.208;2023-09-12T12:51:42;18.00;;;15.00;;
20294;SDS011;10306;52.128;5.208;2023-09-12T12:54:08;17.02;;;13.70;;
20294;SDS011;10306;52.128;5.208;2023-09-12T12:56:34;15.63;;;13.55;;
20294;SDS011;10306;52.128;5.208;2023-09-12T12:59:01;20.17;;;14.20;;
20294;SDS011;10306;52.128;5.208;2023-09-12T13:01:28;19.08;;;15.43;;
20294;SDS011;10306;52.128;5.208;2023-09-12T13:03:54;20.25;;;15.55;;
20294;SDS011;10306;52.128;5.208;2023-09-12T13:06:21;20.25;;;15.50;;
20294;SDS011;10306;52.128;5.208;2023-09-12T13:08:48;17.90;;;15.35;;
20294;SDS011;10306;52.128;5.208;2023-09-12T13:11:15;17.40;;;14.35;;
20294;SDS011;10306;52.128;5.208;2023-09-12T13:13:41;11.85;;;10.07;;
20294;SDS011;10306;52.128;5.208;2023-09-12T13:16:08;9.13;;;8.23;;
20294;SDS011;10306;52.128;5.208;2023-09-12T13:18:38;7.75;;;6.95;;
20294;SDS011;10306;52.128;5.208;2023-09-12T13:21:04;7.15;;;6.45;;
20294;SDS011;10306;52.128;5.208;2023-09-12T13:23:32;5.90;;;5.50;;
20294;SDS011;10306;52.128;5.208;2023-09-12T13:25:58;6.95;;;6.25;;
20294;SDS011;10306;52.128;5.208;2023-09-12T13:28:24;6.82;;;6.22;;
20294;SDS011;10306;52.128;5.208;2023-09-12T13:30:53;6.57;;;5.93;;
20294;SDS011;10306;52.128;5.208;2023-09-12T13:33:19;7.55;;;5.57;;
20294;SDS011;10306;52.128;5.208;2023-09-12T13:35:49;5.85;;;5.20;;
20294;SDS011;10306;52.128;5.208;2023-09-12T13:38:15;8.20;;;5.88;;
20294;SDS011;10306;52.128;5.208;2023-09-12T13:40:43;5.90;;;5.30;;
20294;SDS011;10306;52.128;5.208;2023-09-12T13:43:09;5.47;;;4.90;;
20294;SDS011;10306;52.128;5.208;2023-09-12T13:45:35;5.35;;;4.90;;
20294;SDS011;10306;52.128;5.208;2023-09-12T13:48:02;5.93;;;5.32;;
20294;SDS011;10306;52.128;5.208;2023-09-12T13:50:28;5.65;;;4.40;;
20294;SDS011;10306;52.128;5.208;2023-09-12T13:52:54;4.70;;;4.30;;
20294;SDS011;10306;52.128;5.208;2023-09-12T13:55:24;3.78;;;3.53;;
20294;SDS011;10306;52.128;5.208;2023-09-12T13:57:50;3.85;;;3.65;;
20294;SDS011;10306;52.128;5.208;2023-09-12T14:00:16;2.55;;;2.40;;
20294;SDS011;10306;52.128;5.208;2023-09-12T14:02:43;3.08;;;2.83;;
20294;SDS011;10306;52.128;5.208;2023-09-12T14:05:12;2.72;;;2.53;;
20294;SDS011;10306;52.128;5.208;2023-09-12T14:07:38;2.38;;;2.28;;
20294;SDS011;10306;52.128;5.208;2023-09-12T14:10:07;2.72;;;2.55;;
20294;SDS011;10306;52.128;5.208;2023-09-12T14:12:34;2.92;;;2.72;;
20294;SDS011;10306;52.128;5.208;2023-09-12T14:15:00;2.70;;;2.50;;
20294;SDS011;10306;52.128;5.208;2023-09-12T14:17:28;3.90;;;2.65;;
20294;SDS011;10306;52.128;5.208;2023-09-12T14:19:54;2.30;;;2.20;;
20294;SDS011;10306;52.128;5.208;2023-09-12T14:22:20;2.00;;;1.90;;
20294;SDS011;10306;52.128;5.208;2023-09-12T14:24:46;2.25;;;2.00;;
20294;SDS011;10306;52.128;5.208;2023-09-12T14:27:12;2.22;;;2.13;;
20294;SDS011;10306;52.128;5.208;2023-09-12T14:29:38;2.60;;;2.50;;
20294;SDS011;10306;52.128;5.208;2023-09-12T14:32:04;2.50;;;2.40;;
20294;SDS011;10306;52.128;5.208;2023-09-12T14:34:30;2.38;;;2.28;;
20294;SDS011;10306;52.128;5.208;2023-09-12T14:36:58;2.40;;;2.20;;
20294;SDS011;10306;52.128;5.208;2023-09-12T14:39:24;3.75;;;3.58;;
20294;SDS011;10306;52.128;5.208;2023-09-12T14:41:51;4.80;;;4.50;;